Latest Weather Observations for Barimunya

IDW60801

Issued at 3:03 pm WST Monday 30 March 2015 (issued every 30 minutes, with the page automatically refreshed every 10 minutes)

About weather observations | Map of weather stations | Latest weather observations for WA | Other Formats
Station Details ID: 505053 Name: BARIMUNYA Lat: -22.67 Lon: 119.16 Height: 629.17 m
Data from the previous 72 hours. | See also: Recent months for locations in Western Australia
Date/Time
WST
Temp
°C
App
Temp
°C
Dew
Point
Rel
Hum
%
Delta-T
°C
Wind Press
QNH
hPa
Press
MSL
hPa
Rain
since 9 am
mm
Dir
 
Spd
km/h
Gust
km/h
Spd
kts
Gust
kts
30/03:00pm 28.1 27.3 16.1 48 7.6 NNE 15 19 8 10 1016.6 1011.8 0.0
30/02:30pm 28.1 27.8 16.4 49 7.4 N 13 19 7 10 1016.7 1011.9 0.0
30/02:00pm 28.0 27.3 16.3 49 7.4 ENE 15 20 8 11 1017.0 1012.3 0.0
30/01:30pm 27.6 26.3 14.9 45 7.9 NNE 15 20 8 11 1017.4 1012.6 0.0
30/01:00pm 28.0 27.4 15.6 46 7.8 N 13 20 7 11 1017.6 1012.8 0.0
30/12:30pm 27.6 26.7 14.9 45 7.9 NNE 13 17 7 9 1017.8 1013.0 0.0
30/12:00pm 27.2 26.7 14.9 47 7.6 N 11 17 6 9 1018.1 1013.3 0.0
30/11:30am 26.8 25.5 14.9 48 7.4 N 15 20 8 11 1018.7 1014.0 0.0
30/11:00am 27.2 25.5 14.6 46 7.8 N 17 22 9 12 1019.2 1014.4 0.0
30/10:30am 26.7 25.5 15.1 49 7.2 NNW 15 22 8 12 1019.4 1014.6 0.0
30/10:00am 27.0 24.7 14.1 45 7.9 N 19 28 10 15 1019.7 1015.0 0.0
30/09:30am 26.3 25.2 14.4 48 7.3 N 13 19 7 10 1019.7 1015.0 0.0
30/09:00am 25.9 25.3 14.7 50 6.9 N 11 19 6 10 1019.8 1015.1 0.0
30/08:30am 26.0 24.7 13.8 47 7.4 NNE 13 19 7 10 1019.5 1014.7 0.0
30/08:00am 25.9 24.7 14.1 48 7.2 NNE 13 17 7 9 1019.2 1014.4 0.0
30/07:30am 26.4 25.2 12.8 43 8.1 NE 11 15 6 8 1018.5 1013.8 0.0
30/07:00am 26.9 25.0 11.8 39 8.9 ENE 13 17 7 9 1018.1 1013.3 0.0
30/06:30am 27.0 24.1 11.1 37 9.3 ENE 17 24 9 13 1017.7 1012.9 0.0
30/06:00am 26.4 24.7 12.5 42 8.3 ENE 13 15 7 8 1017.5 1012.7 0.0
30/05:30am 26.2 24.0 13.3 45 7.8 ENE 17 22 9 12 1017.2 1012.5 0.0
30/05:00am 26.4 24.2 13.2 44 7.9 E 17 22 9 12 1016.8 1012.1 0.0
30/04:30am 26.0 25.0 13.5 46 7.5 NE 11 15 6 8 1016.8 1012.1 0.0
30/04:00am 25.5 25.7 14.6 51 6.7 NNE 7 11 4 6 1016.9 1012.2 0.0
30/03:30am 26.1 26.1 14.2 48 7.3 ENE 7 11 4 6 1017.0 1012.3 0.0
30/03:00am 26.9 24.8 13.6 44 8.1 ENE 17 26 9 14 1016.9 1012.2 0.0
30/02:30am 26.5 24.5 13.9 45 7.7 NE 17 28 9 15 1017.4 1012.6 0.0
30/02:00am 26.3 25.5 14.1 47 7.4 NE 11 17 6 9 1017.4 1012.6 0.0
30/01:30am 26.6 25.4 14.0 46 7.7 ENE 13 20 7 11 1017.6 1012.8 0.0
30/01:00am 26.7 25.7 14.5 47 7.5 NE 13 15 7 8 1017.5 1012.7 0.0
30/12:30am 26.4 26.2 14.8 49 7.2 ENE 9 15 5 8 1018.0 1013.2 0.0
30/12:00am 26.4 25.9 14.8 49 7.2 NE 11 15 6 8 1018.2 1013.5 0.0
 
Date/Time
WST
Temp
°C
App
Temp
°C
Dew
Point
Rel
Hum
%
Delta-T
°C
Wind Press
QNH
hPa
Press
MSL
hPa
Rain
since 9 am
mm
Dir
 
Spd
km/h
Gust
km/h
Spd
kts
Gust
kts
29/11:30pm 26.5 25.6 14.9 49 7.2 NE 13 17 7 9 1018.5 1013.8 0.0
29/11:00pm 26.9 24.8 14.6 46 7.6 NE 19 26 10 14 1018.8 1014.1 0.0
29/10:30pm 26.9 25.2 14.6 46 7.6 NE 17 20 9 11 1018.9 1014.2 0.0
29/10:00pm 27.1 24.9 14.5 46 7.7 NE 19 22 10 12 1019.1 1014.3 0.0
29/09:30pm 27.1 25.7 14.5 46 7.8 NNE 15 20 8 11 1019.1 1014.3 0.0
29/09:00pm 26.9 24.8 14.6 46 7.6 NE 19 24 10 13 1018.8 1014.1 0.0
29/08:30pm 27.2 24.5 14.6 46 7.8 NE 22 32 12 17 1018.8 1014.1 0.0
29/08:00pm 26.9 24.2 14.6 46 7.6 NE 22 28 12 15 1018.6 1013.9 0.0
29/07:30pm 27.4 24.3 14.4 45 8.0 NE 24 33 13 18 1018.3 1013.6 0.0
29/07:00pm 28.5 24.5 14.0 41 8.9 NE 28 41 15 22 1017.8 1013.0 0.0
29/06:30pm 30.1 27.7 12.5 34 10.6 NE 17 24 9 13 1017.1 1012.4 0.0
29/06:00pm 31.2 28.2 12.5 31 11.3 E 20 24 11 13 1016.6 1011.8 0.0
29/05:30pm 31.6 29.0 11.9 30 11.9 ENE 17 22 9 12 1016.5 1011.7 0.0
29/05:00pm 31.6 28.7 12.4 31 11.6 ENE 19 26 10 14 1016.5 1011.7 0.0
29/04:30pm 32.5 28.6 12.2 29 12.3 ENE 24 32 13 17 1016.3 1011.5 0.0
29/04:00pm 32.7 30.4 12.9 30 12.1 NNE 17 28 9 15 1016.1 1011.3 0.0
29/03:30pm 32.3 30.2 12.5 30 12.1 ENE 15 20 8 11 1016.1 1011.3 0.0
29/03:00pm 32.2 29.7 12.4 30 12.0 E 17 28 9 15 1016.2 1011.4 0.0
29/02:30pm 31.8 29.0 12.6 31 11.7 NE 19 28 10 15 1016.3 1011.5 0.0
29/02:00pm 31.9 30.1 13.2 32 11.5 ENE 15 24 8 13 1016.6 1011.8 0.0
29/01:30pm 31.6 28.7 12.9 32 11.4 ENE 20 30 11 16 1016.8 1012.1 0.0
29/01:00pm 31.6 29.2 13.8 34 11.0 ENE 19 30 10 16 1017.2 1012.5 0.0
29/12:30pm 30.9 29.0 14.1 36 10.4 ESE 17 26 9 14 1017.7 1012.9 0.0
29/12:00pm 30.2 28.7 14.3 38 9.9 ENE 15 26 8 14 1018.2 1013.5 0.0
29/11:30am 29.6 28.5 14.2 39 9.5 NE 13 20 7 11 1018.7 1014.0 0.0
29/11:00am 29.1 27.3 14.5 41 9.0 ENE 17 24 9 13 1018.8 1014.1 0.0
29/10:30am 28.7 26.2 14.1 40 9.0 E 20 28 11 15 1019.1 1014.3 0.0
29/10:00am 27.8 24.9 14.1 43 8.4 E 22 32 12 17 1019.4 1014.6 0.0
29/09:30am 27.2 24.7 14.2 44 8.0 E 20 33 11 18 1019.7 1015.0 0.0
29/09:00am 26.5 23.3 14.3 47 7.5 ESE 24 32 13 17 1019.8 1015.1 0.0
29/08:30am 25.9 22.9 14.7 50 6.9 E 24 32 13 17 1019.7 1015.0 0.0
29/08:00am 24.9 21.9 14.7 53 6.2 E 24 32 13 17 1019.5 1014.7 0.0
29/07:30am 23.8 21.8 15.6 60 5.1 ESE 20 33 11 18 1019.3 1014.5 0.0
29/07:00am 22.9 21.2 16.2 66 4.2 ESE 20 28 11 15 1019.1 1014.3 0.0
29/06:30am 22.6 21.4 16.2 67 4.0 ESE 17 20 9 11 1018.7 1014.0 0.0
29/06:02am 22.9 22.4 16.0 65 4.3 ESE 13 22 7 12 1018.4 1013.7 0.0
29/06:00am 22.9 22.4 16.0 65 4.3 ESE 13 22 7 12 1018.4 1013.7 0.0
29/05:40am 22.9 22.1 16.2 66 4.2 ESE 15 20 8 11 1018.1 1013.3 0.0
29/05:30am 23.0 21.5 16.3 66 4.2 ESE 19 24 10 13 1018.0 1013.2 0.0
29/05:00am 23.2 22.1 16.3 65 4.3 ESE 17 24 9 13 1017.6 1012.8 0.0
29/04:30am 23.4 21.9 16.2 64 4.5 ESE 19 26 10 14 1017.4 1012.6 0.0
29/04:00am 23.0 24.0 16.8 68 3.9 SSE 7 7 4 4 1017.1 1012.4 0.0
29/03:30am 22.5 25.1 17.4 73 3.2 CALM 0 0 0 0 1017.0 1012.3 0.0
29/03:00am 22.9 25.5 17.6 72 3.4 CALM 0 6 0 3 1017.0 1012.3 0.0
29/02:30am 23.4 24.7 17.2 68 3.9 SSE 6 6 3 3 1016.9 1012.2 0.0
29/02:00am 23.5 25.8 16.8 66 4.2 CALM 0 0 0 0 1017.0 1012.3 0.0
29/01:30am 23.6 24.6 16.4 64 4.5 SSE 6 7 3 4 1017.2 1012.5 0.0
29/01:00am 23.9 24.6 16.2 62 4.8 SSE 7 11 4 6 1017.5 1012.7 0.0
29/12:30am 24.1 24.8 16.1 61 5.0 SSE 7 11 4 6 1017.8 1013.0 0.0
29/12:00am 24.6 24.3 15.5 57 5.6 SSE 11 13 6 7 1018.0 1013.2 0.0
 
Date/Time
WST
Temp
°C
App
Temp
°C
Dew
Point
Rel
Hum
%
Delta-T
°C
Wind Press
QNH
hPa
Press
MSL
hPa
Rain
since 9 am
mm
Dir
 
Spd
km/h
Gust
km/h
Spd
kts
Gust
kts
28/11:30pm 25.0 24.3 15.3 55 6.0 SSE 13 15 7 8 1018.1 1013.3 0.0
28/11:00pm 25.1 24.8 15.4 55 6.0 SSE 11 13 6 7 1018.2 1013.5 0.0
28/10:30pm 25.4 25.5 15.4 54 6.2 SSE 9 13 5 7 1018.4 1013.7 0.0
28/10:00pm 25.5 25.5 15.2 53 6.4 SSE 9 13 5 7 1018.5 1013.8 0.0
28/09:30pm 25.9 25.8 15.0 51 6.7 SSE 9 11 5 6 1018.6 1013.9 0.0
28/09:00pm 26.7 25.9 14.1 46 7.7 SSE 11 15 6 8 1018.3 1013.6 0.0
28/08:30pm 26.6 26.4 14.7 48 7.3 SE 9 11 5 6 1018.1 1013.3 0.0
28/08:00pm 26.9 26.6 14.3 46 7.7 SSE 9 11 5 6 1017.7 1012.9 0.0
28/07:30pm 27.6 26.8 13.9 43 8.4 SSE 11 15 6 8 1017.2 1012.5 0.0
28/07:00pm 28.0 27.0 13.5 41 8.8 SE 11 15 6 8 1016.8 1012.1 0.0
28/06:30pm 28.5 27.7 12.8 38 9.5 SE 9 15 5 8 1016.6 1011.8 0.0
28/06:00pm 29.3 27.4 11.8 34 10.4 ESE 13 17 7 9 1016.2 1011.4 0.0
28/05:30pm 30.1 28.7 12.1 33 10.8 E 11 17 6 9 1015.9 1011.1 0.0
28/05:00pm 30.4 28.9 11.9 32 11.1 SE 11 17 6 9 1016.0 1011.2 0.0
28/04:30pm 30.4 29.1 11.4 31 11.3 ESE 9 15 5 8 1015.9 1011.1 0.0
28/04:00pm 31.0 28.9 12.4 32 11.3 E 15 20 8 11 1015.8 1011.0 0.0
28/03:30pm 30.9 29.1 13.2 34 10.8 E 15 20 8 11 1016.0 1011.2 0.0
28/03:00pm 30.5 28.0 12.4 33 10.9 E 17 28 9 15 1016.2 1011.4 0.0
28/02:30pm 30.0 28.6 13.3 36 10.2 E 13 20 7 11 1016.5 1011.7 0.0
28/02:00pm 29.7 27.4 13.0 35 10.1 E 17 24 9 13 1016.6 1011.8 0.0
28/01:30pm 29.7 26.5 13.0 35 10.2 ESE 22 35 12 19 1017.0 1012.3 0.0
28/01:00pm 29.3 26.2 12.3 35 10.2 ESE 20 28 11 15 1017.4 1012.6 0.0
28/12:30pm 28.6 25.6 12.5 37 9.7 ESE 20 30 11 16 1017.8 1013.0 0.0
28/12:00pm 29.0 26.0 13.6 38 9.4 ESE 22 32 12 17 1018.4 1013.7 0.0
28/11:30am 28.1 25.4 13.6 41 8.8 ESE 20 30 11 16 1018.9 1014.2 0.0
28/11:00am 28.1 25.6 15.1 45 8.1 ESE 22 32 12 17 1019.5 1014.7 0.0
28/10:30am 27.1 24.0 14.5 46 7.8 SE 24 32 13 17 1019.7 1015.0 0.0
28/10:00am 25.9 23.1 14.4 49 7.0 SE 22 30 12 16 1019.9 1015.2 0.0
28/09:30am 24.7 21.9 14.2 52 6.4 ESE 22 32 12 17 1020.0 1015.3 0.0
28/09:00am 24.2 21.8 14.3 54 6.0 ESE 20 30 11 16 1020.1 1015.4 0.0
28/08:30am 23.8 21.2 14.8 57 5.5 SE 22 30 12 16 1020.1 1015.4 0.0
28/08:00am 22.6 20.7 15.2 63 4.5 SE 19 24 10 13 1020.0 1015.3 0.0
28/07:30am 21.4 19.3 15.3 68 3.7 SE 20 24 11 13 1019.6 1014.8 0.0
28/07:00am 20.9 19.6 15.9 73 3.1 SE 17 24 9 13 1019.3 1014.5 0.0
28/06:30am 20.8 20.3 15.8 73 3.1 ESE 13 17 7 9 1018.9 1014.2 0.0
28/06:00am 20.4 19.9 16.0 76 2.7 ESE 13 17 7 9 1018.5 1013.8 0.0
28/05:30am 20.3 19.9 16.3 78 2.5 ESE 13 15 7 8 1018.3 1013.6 0.0
28/05:00am 20.3 20.2 16.1 77 2.6 ESE 11 15 6 8 1018.2 1013.5 0.0
28/04:41am 20.4 20.8 16.4 78 2.5 ESE 9 15 5 8 1018.2 1013.5 0.0
28/04:30am 20.6 20.7 16.4 77 2.6 SE 11 13 6 7 1018.0 1013.2 0.0
28/04:00am 20.8 21.4 16.8 78 2.5 SE 9 13 5 7 1018.1 1013.3 0.0
28/03:57am 20.7 21.3 16.7 78 2.5 SE 9 13 5 7 1018.1 1013.3 0.0
28/03:30am 20.9 20.9 16.3 75 2.8 SSE 11 13 6 7 1018.0 1013.2 0.0
28/03:00am 21.1 21.5 16.3 74 3.0 SSE 9 11 5 6 1017.9 1013.1 0.0
28/02:45am 21.0 21.4 16.2 74 3.0 SE 9 11 5 6 1018.1 1013.3 0.0
28/02:30am 21.1 21.4 16.1 73 3.1 SSE 9 9 5 5 1018.1 1013.3 0.0
28/02:09am 21.2 22.0 16.4 74 3.0 S 7 9 4 5 1018.3 1013.6 0.0
28/02:00am 21.1 22.0 16.1 73 3.1 S 6 9 3 5 1018.4 1013.7 0.0
28/01:30am 21.3 22.3 16.3 73 3.1 S 6 7 3 4 1018.4 1013.7 0.0
28/01:00am 21.6 22.2 15.7 69 3.6 S 7 9 4 5 1018.6 1013.9 0.0
28/12:30am 21.9 21.6 15.5 67 3.9 S 11 15 6 8 1018.9 1014.2 0.0
28/12:00am 21.2 23.2 17.0 77 2.6 SW 2 7 1 4 1019.1 1014.3 0.0
 
Date/Time
WST
Temp
°C
App
Temp
°C
Dew
Point
Rel
Hum
%
Delta-T
°C
Wind Press
QNH
hPa
Press
MSL
hPa
Rain
since 9 am
mm
Dir
 
Spd
km/h
Gust
km/h
Spd
kts
Gust
kts
27/11:30pm 21.2 23.3 16.2 73 3.1 CALM 0 0 0 0 1019.3 1014.5 0.0
27/11:00pm 21.6 21.5 15.9 70 3.5 SSW 11 15 6 8 1019.5 1014.7 0.0
27/10:30pm 21.6 20.8 16.1 71 3.4 SW 15 20 8 11 1019.9 1015.2 0.0
27/10:00pm 21.5 21.1 16.2 72 3.3 SSW 13 20 7 11 1019.9 1015.2 0.0
27/09:30pm 21.6 21.6 16.3 72 3.3 S 11 15 6 8 1019.9 1015.2 0.0
27/09:00pm 21.8 20.3 16.3 71 3.4 S 19 26 10 14 1019.8 1015.1 0.0
27/08:30pm 21.9 22.4 16.6 72 3.3 S 9 13 5 7 1019.8 1015.1 0.0
27/08:00pm 22.0 21.6 16.3 70 3.5 SE 13 17 7 9 1019.4 1014.6 0.0
27/07:30pm 22.3 20.7 16.1 68 3.8 SSE 19 24 10 13 1019.1 1014.3 0.0
27/07:00pm 22.6 21.3 15.7 65 4.3 SSE 17 22 9 12 1018.5 1013.8 0.0
27/06:30pm 23.0 21.1 15.3 62 4.7 SSE 19 24 10 13 1018.7 1014.0 0.0
27/06:00pm 23.7 22.1 14.9 57 5.4 SSE 17 22 9 12 1018.4 1013.7 0.0
27/05:30pm 23.6 20.5 14.6 57 5.5 SSE 24 32 13 17 1017.9 1013.1 0.0
27/05:00pm 23.8 20.3 14.5 56 5.6 S 26 32 14 17 1018.3 1013.6 0.0
27/04:30pm 23.8 19.7 13.9 54 6.0 S 28 37 15 20 1018.2 1013.5 0.0
27/04:00pm 24.1 20.0 13.9 53 6.1 S 28 35 15 19 1018.6 1013.9 0.0
27/03:30pm 24.7 19.4 14.2 52 6.4 SSW 35 50 19 27 1018.7 1014.0 0.0

Other Formats:

Comma delimited format used in spreadsheet applications
http://www.bom.gov.au/fwo/IDW60801/IDW60801.99313.axf

JavaScript Object Notation format (JSON) in row-major order
http://www.bom.gov.au/fwo/IDW60801/IDW60801.99313.json